createdAt,value
2023-02-06T00:00:25.353Z,25.60
2023-02-06T00:02:53.542Z,26.13
2023-02-06T00:05:21.786Z,29.50
2023-02-06T00:07:51.350Z,25.20
2023-02-06T00:10:19.592Z,24.13
2023-02-06T00:12:47.875Z,27.37
2023-02-06T00:15:16.070Z,26.87
2023-02-06T00:17:44.267Z,25.70
2023-02-06T00:20:13.341Z,23.57
2023-02-06T00:22:41.610Z,28.63
2023-02-06T00:25:11.283Z,28.30
2023-02-06T00:27:39.472Z,27.70
2023-02-06T00:30:08.278Z,31.73
2023-02-06T00:32:36.494Z,30.00
2023-02-06T00:35:04.714Z,33.57
2023-02-06T00:37:32.926Z,32.97
2023-02-06T00:40:01.142Z,27.70
2023-02-06T00:42:30.680Z,25.27
2023-02-06T00:44:58.894Z,29.23
2023-02-06T00:47:27.097Z,25.53
2023-02-06T00:49:55.292Z,25.60
2023-02-06T00:52:23.451Z,32.57
2023-02-06T00:54:51.607Z,30.60
2023-02-06T00:57:19.805Z,36.70
2023-02-06T00:59:49.380Z,30.17
2023-02-06T01:02:17.881Z,24.50
2023-02-06T01:04:46.246Z,22.37
2023-02-06T01:07:14.405Z,29.70
2023-02-06T01:09:42.545Z,31.70
2023-02-06T01:12:10.766Z,34.50
2023-02-06T01:14:39.029Z,27.87
2023-02-06T01:17:10.187Z,24.67
2023-02-06T01:19:38.485Z,28.30
2023-02-06T01:22:06.962Z,28.77
2023-02-06T01:24:35.181Z,26.30
2023-02-06T01:27:03.319Z,35.73
2023-02-06T01:29:31.630Z,24.80
2023-02-06T01:31:59.862Z,28.10
2023-02-06T01:34:29.404Z,33.60
2023-02-06T01:36:57.613Z,28.63
2023-02-06T01:39:25.851Z,26.47
2023-02-06T01:41:54.021Z,23.30
2023-02-06T01:44:23.318Z,30.80
2023-02-06T01:46:52.928Z,22.53
2023-02-06T01:49:21.865Z,23.47
2023-02-06T01:51:52.184Z,28.47
2023-02-06T01:54:20.446Z,28.00
2023-02-06T01:56:49.804Z,26.50
2023-02-06T01:59:18.155Z,26.17
2023-02-06T02:01:46.403Z,27.07
2023-02-06T02:04:16.532Z,29.10
2023-02-06T02:06:44.889Z,23.40
2023-02-06T02:09:14.495Z,27.83
2023-02-06T02:11:43.265Z,25.87
2023-02-06T02:14:13.698Z,27.73
2023-02-06T02:16:45.493Z,30.77
2023-02-06T02:19:34.467Z,28.17
2023-02-06T02:22:30.719Z,25.27
2023-02-06T02:25:09.662Z,26.90
2023-02-06T02:27:46.471Z,23.93
2023-02-06T02:30:33.304Z,24.40
2023-02-06T02:33:12.785Z,27.30
2023-02-06T02:35:47.024Z,21.10
2023-02-06T02:38:20.807Z,22.37
2023-02-06T02:40:51.530Z,21.27
2023-02-06T02:43:24.167Z,23.77
2023-02-06T02:45:53.946Z,27.63
2023-02-06T02:48:24.402Z,25.30
2023-02-06T02:50:54.933Z,26.43
2023-02-06T02:53:23.218Z,26.90
2023-02-06T02:55:51.414Z,27.20
2023-02-06T02:58:20.715Z,25.87
2023-02-06T03:00:51.038Z,20.73
2023-02-06T03:03:22.060Z,27.87
2023-02-06T03:05:54.109Z,21.33
2023-02-06T03:08:29.894Z,20.50
2023-02-06T03:11:04.765Z,21.77
2023-02-06T03:13:34.197Z,22.67
2023-02-06T03:16:05.256Z,27.47
2023-02-06T03:18:36.247Z,22.37
2023-02-06T03:21:05.573Z,23.00
2023-02-06T03:23:37.599Z,22.47
2023-02-06T03:26:07.376Z,23.43
2023-02-06T03:28:37.721Z,23.53
2023-02-06T03:31:07.821Z,26.43
2023-02-06T03:33:37.915Z,21.70
2023-02-06T03:36:06.418Z,16.47
2023-02-06T03:38:35.994Z,17.47
2023-02-06T03:41:05.402Z,27.97
2023-02-06T03:43:33.979Z,21.67
2023-02-06T03:46:03.739Z,20.83
2023-02-06T03:48:33.426Z,18.77
2023-02-06T03:51:04.104Z,23.47
2023-02-06T03:53:34.633Z,23.53
2023-02-06T03:56:08.243Z,31.77
2023-02-06T03:58:36.501Z,19.90
2023-02-06T04:01:05.682Z,12.73
2023-02-06T04:03:34.080Z,20.60
2023-02-06T04:06:02.386Z,23.17
2023-02-06T04:08:30.539Z,27.73
2023-02-06T04:10:58.734Z,19.60
2023-02-06T04:13:28.249Z,17.53
2023-02-06T04:15:56.489Z,16.40
2023-02-06T04:18:24.991Z,25.20
2023-02-06T04:20:53.313Z,21.67
2023-02-06T04:23:21.863Z,20.63
2023-02-06T04:25:50.058Z,24.47
2023-02-06T04:28:18.258Z,17.50
2023-02-06T04:30:49.132Z,19.63
2023-02-06T04:33:17.372Z,19.90
2023-02-06T04:35:45.605Z,26.73
2023-02-06T04:38:13.783Z,17.83
2023-02-06T04:40:42.034Z,23.70
2023-02-06T04:43:10.266Z,18.07
2023-02-06T04:45:38.807Z,27.20
2023-02-06T04:48:08.583Z,15.80
2023-02-06T04:50:36.970Z,17.33
2023-02-06T04:53:05.145Z,12.57
2023-02-06T04:55:33.549Z,18.30
2023-02-06T04:58:01.916Z,22.37
2023-02-06T05:00:30.115Z,19.03
2023-02-06T05:02:58.313Z,18.27
2023-02-06T05:05:27.871Z,18.80
2023-02-06T05:07:56.263Z,17.60
2023-02-06T05:10:24.468Z,20.43
2023-02-06T05:12:52.744Z,17.57
2023-02-06T05:15:21.056Z,17.13
2023-02-06T05:17:49.247Z,18.07
2023-02-06T05:20:17.532Z,15.97
2023-02-06T05:22:47.109Z,24.00
2023-02-06T05:25:15.350Z,16.50
2023-02-06T05:27:43.594Z,21.87
2023-02-06T05:30:12.645Z,18.27
2023-02-06T05:32:40.859Z,18.87
2023-02-06T05:35:09.269Z,19.53
2023-02-06T05:37:38.494Z,20.57
2023-02-06T05:40:08.481Z,19.47
2023-02-06T05:42:36.634Z,15.57
2023-02-06T05:45:05.602Z,16.07
2023-02-06T05:47:33.742Z,19.53
2023-02-06T05:50:01.967Z,18.93
2023-02-06T05:52:30.120Z,21.23
2023-02-06T05:54:58.265Z,17.40
2023-02-06T05:57:27.896Z,21.73
2023-02-06T05:59:56.104Z,22.47
2023-02-06T06:02:24.423Z,20.20
2023-02-06T06:04:52.654Z,17.73
2023-02-06T06:07:20.834Z,20.83
2023-02-06T06:09:49.195Z,21.37
2023-02-06T06:12:17.364Z,27.23
2023-02-06T06:14:46.883Z,23.37
2023-02-06T06:17:15.074Z,18.97
2023-02-06T06:19:43.306Z,19.70
2023-02-06T06:22:11.487Z,20.27
2023-02-06T06:24:39.783Z,22.10
2023-02-06T06:27:10.585Z,17.83
2023-02-06T06:29:38.779Z,20.90
2023-02-06T06:32:08.452Z,26.33
2023-02-06T06:34:36.627Z,24.40
2023-02-06T06:37:04.732Z,25.00
2023-02-06T06:39:32.914Z,23.63
2023-02-06T06:42:01.116Z,23.57
2023-02-06T06:44:29.336Z,18.67
2023-02-06T06:46:57.493Z,24.30
2023-02-06T06:49:28.965Z,27.77
2023-02-06T06:51:57.273Z,25.47
2023-02-06T06:54:25.487Z,27.17
2023-02-06T06:56:53.780Z,24.17
2023-02-06T06:59:22.059Z,24.60
2023-02-06T07:01:52.465Z,24.00
2023-02-06T07:04:20.937Z,21.30
2023-02-06T07:06:50.526Z,20.40
2023-02-06T07:09:18.692Z,24.77
2023-02-06T07:11:46.843Z,22.57
2023-02-06T07:14:15.093Z,21.53
2023-02-06T07:16:43.286Z,24.33
2023-02-06T07:19:11.479Z,24.90
2023-02-06T07:21:39.688Z,19.47
2023-02-06T07:24:09.676Z,26.67
2023-02-06T07:26:37.886Z,26.10
2023-02-06T07:29:06.095Z,29.97
2023-02-06T07:31:34.330Z,24.20
2023-02-06T07:34:02.842Z,19.97
2023-02-06T07:36:31.057Z,25.43
2023-02-06T07:38:59.252Z,25.73
2023-02-06T07:41:28.830Z,20.53
2023-02-06T07:43:57.127Z,24.07
2023-02-06T07:46:25.438Z,19.33
2023-02-06T07:48:53.743Z,21.70
2023-02-06T07:51:22.953Z,19.03
2023-02-06T07:53:51.111Z,21.33
2023-02-06T07:56:19.849Z,26.73
2023-02-06T07:58:52.818Z,23.37
2023-02-06T08:01:21.448Z,22.60
2023-02-06T08:03:50.717Z,19.43
2023-02-06T08:06:19.284Z,19.13
2023-02-06T08:08:47.615Z,23.87
2023-02-06T08:11:16.791Z,21.90
2023-02-06T08:13:45.251Z,19.70
2023-02-06T08:16:16.079Z,23.13
2023-02-06T08:18:44.505Z,24.00
2023-02-06T08:21:13.833Z,25.50
2023-02-06T08:23:43.614Z,18.40
2023-02-06T08:26:12.780Z,17.83
2023-02-06T08:28:42.416Z,23.63
2023-02-06T08:31:11.910Z,17.63
2023-02-06T08:33:41.706Z,19.93
2023-02-06T08:36:10.636Z,22.37
2023-02-06T08:38:39.106Z,18.63
2023-02-06T08:41:07.352Z,18.47
2023-02-06T08:43:35.534Z,25.67
2023-02-06T08:46:03.741Z,24.13
2023-02-06T08:48:31.889Z,29.20
2023-02-06T08:51:05.238Z,22.77
2023-02-06T08:53:33.383Z,21.83
2023-02-06T08:56:01.712Z,23.77
2023-02-06T08:58:29.979Z,24.47
2023-02-06T09:00:59.935Z,25.80
2023-02-06T09:03:28.470Z,23.07
2023-02-06T09:06:09.533Z,24.50
2023-02-06T09:08:40.119Z,26.83
2023-02-06T09:11:08.627Z,25.63
2023-02-06T09:13:36.827Z,22.17
2023-02-06T09:16:05.545Z,23.80
2023-02-06T09:18:33.718Z,27.60
2023-02-06T09:21:06.259Z,24.23
2023-02-06T09:23:34.591Z,34.40
2023-02-06T09:26:04.134Z,32.80
2023-02-06T09:28:32.322Z,30.97
2023-02-06T09:31:00.649Z,26.40
2023-02-06T09:33:28.861Z,30.03
2023-02-06T09:36:04.088Z,29.53
2023-02-06T09:38:32.295Z,29.43
2023-02-06T09:41:01.375Z,26.70
2023-02-06T09:43:31.597Z,25.63
2023-02-06T09:46:02.903Z,32.27
2023-02-06T09:48:32.721Z,31.77
2023-02-06T09:51:04.094Z,24.57
2023-02-06T09:53:36.081Z,21.63
2023-02-06T09:56:11.379Z,19.67
2023-02-06T09:58:43.238Z,21.53
2023-02-06T10:01:14.676Z,26.43
2023-02-06T10:03:47.315Z,20.87
2023-02-06T10:06:19.102Z,18.07
2023-02-06T10:08:50.392Z,22.77
2023-02-06T10:11:21.314Z,19.37
2023-02-06T10:13:52.303Z,20.97
2023-02-06T10:16:27.205Z,15.87
2023-02-06T10:18:57.183Z,18.07
2023-02-06T10:21:31.457Z,24.23
2023-02-06T10:24:02.330Z,16.47
2023-02-06T10:26:30.571Z,19.13
2023-02-06T10:29:01.451Z,22.03
2023-02-06T10:31:47.603Z,15.17
2023-02-06T10:34:22.001Z,14.70
2023-02-06T10:36:55.781Z,20.50
2023-02-06T10:39:36.479Z,17.57
2023-02-06T10:42:07.439Z,18.77
2023-02-06T10:44:44.603Z,24.27
2023-02-06T10:47:23.316Z,20.80
2023-02-06T10:49:55.297Z,15.33
2023-02-06T10:52:25.473Z,22.73
2023-02-06T10:54:55.046Z,17.10
2023-02-06T10:57:25.336Z,19.63
2023-02-06T10:59:55.975Z,16.93
2023-02-06T11:02:25.967Z,22.03
2023-02-06T11:04:56.859Z,19.40
2023-02-06T11:07:27.775Z,14.57
2023-02-06T11:09:55.993Z,20.90
2023-02-06T11:12:31.393Z,19.33
2023-02-06T11:15:03.229Z,22.33
2023-02-06T11:17:32.490Z,14.43
2023-02-06T11:20:05.358Z,16.80
2023-02-06T11:22:41.584Z,18.87
2023-02-06T11:25:22.286Z,15.60
2023-02-06T11:27:50.947Z,18.67
2023-02-06T11:30:34.872Z,14.70
2023-02-06T11:33:05.684Z,14.17
2023-02-06T11:35:35.466Z,15.03
2023-02-06T11:38:08.189Z,19.43
2023-02-06T11:40:36.775Z,18.97
2023-02-06T11:43:17.048Z,18.77
2023-02-06T11:45:47.260Z,22.10
2023-02-06T11:48:35.555Z,18.03
2023-02-06T11:51:03.895Z,20.00
2023-02-06T11:53:32.500Z,15.73
2023-02-06T11:56:02.046Z,12.27
2023-02-06T11:58:30.998Z,13.27
2023-02-06T12:01:02.557Z,13.07
2023-02-06T12:03:32.422Z,14.73
2023-02-06T12:06:03.318Z,19.27
2023-02-06T12:08:37.277Z,16.67
2023-02-06T12:11:07.354Z,19.83
2023-02-06T12:13:38.955Z,20.27
2023-02-06T12:16:10.213Z,14.80
2023-02-06T12:18:39.797Z,20.17
2023-02-06T12:21:09.915Z,12.57
2023-02-06T12:23:39.734Z,18.43
2023-02-06T12:26:10.438Z,14.73
2023-02-06T12:28:40.605Z,14.73
2023-02-06T12:31:13.737Z,16.93
2023-02-06T12:33:44.296Z,20.50
2023-02-06T12:36:16.692Z,18.23
2023-02-06T12:38:47.985Z,21.77
2023-02-06T12:41:30.395Z,19.63
2023-02-06T12:44:00.879Z,13.77
2023-02-06T12:46:31.024Z,18.83
2023-02-06T12:49:01.087Z,21.47
2023-02-06T12:51:31.376Z,13.30
2023-02-06T12:54:02.008Z,14.67
2023-02-06T12:56:31.542Z,15.03
2023-02-06T12:59:04.333Z,18.77
2023-02-06T13:01:48.869Z,13.07
2023-02-06T13:04:18.705Z,15.13
2023-02-06T13:06:50.306Z,13.03
2023-02-06T13:09:20.773Z,15.73
2023-02-06T13:11:49.105Z,11.87
2023-02-06T13:14:19.398Z,13.67
2023-02-06T13:16:52.879Z,13.60
2023-02-06T13:19:31.760Z,15.53
2023-02-06T13:22:19.423Z,18.00
2023-02-06T13:24:48.536Z,16.60
2023-02-06T13:27:19.899Z,16.77
2023-02-06T13:29:48.778Z,10.47
2023-02-06T13:32:35.759Z,12.07
2023-02-06T13:35:15.521Z,14.90
2023-02-06T13:37:44.524Z,13.80
2023-02-06T13:40:13.738Z,18.63
2023-02-06T13:42:45.414Z,12.27
2023-02-06T13:45:18.665Z,16.57
2023-02-06T13:47:56.431Z,11.40
2023-02-06T13:50:45.598Z,13.23
2023-02-06T13:53:23.434Z,12.47
2023-02-06T13:56:00.237Z,19.63
2023-02-06T13:58:39.665Z,15.93
2023-02-06T14:01:13.172Z,17.90
2023-02-06T14:03:45.000Z,14.00
2023-02-06T14:06:21.557Z,11.80
2023-02-06T14:08:55.741Z,16.80
2023-02-06T14:11:31.688Z,13.40
2023-02-06T14:14:32.954Z,12.57
2023-02-06T14:17:06.822Z,14.63
2023-02-06T14:19:38.287Z,11.57
2023-02-06T14:22:11.421Z,12.80
2023-02-06T14:24:47.990Z,13.83
2023-02-06T14:27:25.831Z,14.97
2023-02-06T14:29:56.951Z,19.73
2023-02-06T14:32:32.563Z,11.13
2023-02-06T14:35:06.422Z,15.00
2023-02-06T14:37:40.589Z,11.00
2023-02-06T14:40:15.836Z,14.63
2023-02-06T14:42:45.984Z,14.33
2023-02-06T14:45:22.384Z,11.47
2023-02-06T14:47:50.997Z,15.33
2023-02-06T14:50:20.454Z,14.20
2023-02-06T14:52:50.303Z,12.67
2023-02-06T14:55:32.073Z,16.30
2023-02-06T14:58:00.690Z,12.37
2023-02-06T15:00:29.659Z,15.00
2023-02-06T15:03:05.136Z,16.87
2023-02-06T15:05:33.298Z,16.93
2023-02-06T15:08:02.601Z,16.97
2023-02-06T15:10:34.102Z,14.93
2023-02-06T15:13:02.497Z,9.87
2023-02-06T15:15:31.516Z,12.63
2023-02-06T15:18:00.752Z,10.17
2023-02-06T15:20:30.425Z,13.27
2023-02-06T15:23:11.636Z,13.37
2023-02-06T15:25:59.578Z,16.33
2023-02-06T15:28:30.639Z,14.77
2023-02-06T15:30:59.815Z,17.17
2023-02-06T15:33:28.882Z,18.90
2023-02-06T15:35:57.843Z,20.33
2023-02-06T15:38:27.248Z,15.57
2023-02-06T15:40:57.684Z,10.27
2023-02-06T15:43:26.936Z,12.50
2023-02-06T15:45:56.207Z,21.07
2023-02-06T15:48:27.261Z,16.63
2023-02-06T15:51:00.786Z,13.80
2023-02-06T15:53:34.225Z,18.53
2023-02-06T15:56:04.406Z,22.43
2023-02-06T15:58:33.817Z,14.93
2023-02-06T16:01:02.646Z,15.60
2023-02-06T16:03:32.109Z,11.67
2023-02-06T16:06:00.382Z,18.60
2023-02-06T16:08:32.056Z,16.70
2023-02-06T16:11:02.399Z,12.30
2023-02-06T16:13:33.413Z,15.50
2023-02-06T16:16:16.543Z,18.67
2023-02-06T16:18:46.487Z,12.63
2023-02-06T16:21:21.097Z,17.20
2023-02-06T16:23:50.068Z,15.23
2023-02-06T16:26:18.991Z,12.97
2023-02-06T16:28:54.494Z,13.40
2023-02-06T16:31:22.950Z,15.43
2023-02-06T16:33:52.295Z,14.10
2023-02-06T16:36:21.834Z,13.20
2023-02-06T16:39:02.743Z,9.73
2023-02-06T16:41:33.900Z,15.47
2023-02-06T16:44:04.459Z,13.83
2023-02-06T16:46:32.841Z,10.60
2023-02-06T16:49:01.518Z,12.47
2023-02-06T16:51:31.950Z,14.70
2023-02-06T16:54:00.410Z,16.87
2023-02-06T16:56:28.644Z,15.17
2023-02-06T16:58:56.881Z,15.50
2023-02-06T17:01:29.496Z,13.03
2023-02-06T17:03:57.851Z,12.93
2023-02-06T17:06:26.814Z,14.97
2023-02-06T17:08:56.313Z,11.60
2023-02-06T17:11:24.491Z,14.93
2023-02-06T17:13:52.750Z,14.30
2023-02-06T17:16:22.478Z,10.30
2023-02-06T17:18:52.494Z,15.20
2023-02-06T17:21:23.047Z,16.80
2023-02-06T17:23:52.113Z,18.93
2023-02-06T17:26:21.408Z,19.13
2023-02-06T17:28:50.195Z,15.70
2023-02-06T17:31:18.523Z,19.80
2023-02-06T17:33:46.782Z,18.93
2023-02-06T17:36:18.888Z,18.10
2023-02-06T17:38:47.079Z,18.07
2023-02-06T17:41:15.249Z,18.97
2023-02-06T17:43:43.521Z,14.93
2023-02-06T17:46:13.147Z,16.60
2023-02-06T17:48:42.627Z,17.67
2023-02-06T17:51:10.962Z,22.13
2023-02-06T17:53:40.599Z,20.67
2023-02-06T17:56:09.315Z,18.67
2023-02-06T17:58:37.485Z,20.07
2023-02-06T18:01:05.758Z,18.23
2023-02-06T18:03:33.953Z,18.43
2023-02-06T18:06:02.546Z,16.23
2023-02-06T18:08:31.378Z,19.93
2023-02-06T18:11:01.256Z,21.53
2023-02-06T18:13:29.544Z,11.17
2023-02-06T18:15:58.762Z,15.47
2023-02-06T18:18:27.150Z,17.23
2023-02-06T18:20:55.429Z,21.70
2023-02-06T18:23:23.646Z,20.13
2023-02-06T18:25:51.825Z,22.47
2023-02-06T18:28:21.428Z,26.90
2023-02-06T18:30:49.771Z,27.77
2023-02-06T18:33:18.091Z,27.17
2023-02-06T18:35:46.647Z,26.30
2023-02-06T18:38:15.723Z,23.27
2023-02-06T18:40:45.583Z,29.80
2023-02-06T18:43:13.315Z,21.97
2023-02-06T18:45:43.409Z,23.10
2023-02-06T18:48:12.497Z,23.87
2023-02-06T18:50:41.799Z,21.30
2023-02-06T18:53:10.147Z,22.10
2023-02-06T18:55:39.004Z,25.03
2023-02-06T18:58:08.061Z,21.57
2023-02-06T19:00:37.796Z,25.03
2023-02-06T19:03:07.625Z,27.40
2023-02-06T19:05:37.368Z,22.30
2023-02-06T19:08:05.646Z,19.50
2023-02-06T19:10:33.813Z,23.03
2023-02-06T19:13:01.975Z,18.90
2023-02-06T19:15:30.834Z,17.53
2023-02-06T19:17:59.382Z,23.83
2023-02-06T19:20:28.936Z,19.73
2023-02-06T19:22:57.158Z,21.77
2023-02-06T19:25:25.376Z,20.83
2023-02-06T19:27:53.824Z,16.13
2023-02-06T19:30:22.160Z,16.57
2023-02-06T19:32:51.448Z,14.43
2023-02-06T19:35:19.838Z,16.87
2023-02-06T19:37:49.478Z,17.67
2023-02-06T19:40:17.894Z,17.33
2023-02-06T19:42:46.135Z,21.97
2023-02-06T19:45:14.390Z,18.87
2023-02-06T19:47:42.598Z,19.20
2023-02-06T19:50:13.275Z,22.83
2023-02-06T19:52:42.340Z,24.43
2023-02-06T19:55:12.164Z,26.50
2023-02-06T19:57:40.658Z,19.27
2023-02-06T20:00:09.574Z,23.17
2023-02-06T20:02:39.029Z,19.47
2023-02-06T20:05:07.566Z,23.13
2023-02-06T20:07:35.775Z,26.83
2023-02-06T20:10:04.006Z,17.60
2023-02-06T20:12:33.568Z,18.80
2023-02-06T20:15:02.108Z,21.03
2023-02-06T20:17:30.273Z,20.73
2023-02-06T20:20:00.515Z,19.63
2023-02-06T20:22:28.971Z,21.77
2023-02-06T20:24:57.229Z,26.23
2023-02-06T20:27:25.469Z,18.90
2023-02-06T20:29:55.037Z,18.90
2023-02-06T20:32:24.228Z,24.93
2023-02-06T20:34:52.469Z,19.87
2023-02-06T20:37:21.347Z,18.53
2023-02-06T20:39:50.098Z,19.40
2023-02-06T20:42:19.294Z,23.30
2023-02-06T20:44:47.518Z,25.07
2023-02-06T20:47:17.061Z,22.33
2023-02-06T20:49:45.281Z,24.83
2023-02-06T20:52:13.498Z,20.03
2023-02-06T20:54:41.863Z,23.97
2023-02-06T20:57:10.091Z,28.30
2023-02-06T20:59:38.253Z,23.03
2023-02-06T21:02:06.476Z,19.77
2023-02-06T21:04:36.000Z,20.13
2023-02-06T21:07:04.264Z,24.00
2023-02-06T21:09:32.511Z,21.67
2023-02-06T21:12:00.731Z,18.73
2023-02-06T21:14:30.044Z,22.80
2023-02-06T21:16:58.444Z,27.23
2023-02-06T21:19:28.835Z,24.90
2023-02-06T21:21:58.395Z,18.70
2023-02-06T21:24:26.606Z,21.30
2023-02-06T21:26:54.847Z,20.63
2023-02-06T21:29:23.695Z,19.63
2023-02-06T21:32:00.587Z,19.53
2023-02-06T21:34:35.597Z,22.13
2023-02-06T21:37:05.956Z,21.70
2023-02-06T21:39:40.118Z,17.77
2023-02-06T21:42:08.310Z,21.63
2023-02-06T21:44:36.949Z,23.60
2023-02-06T21:47:05.520Z,22.03
2023-02-06T21:49:33.678Z,17.40
2023-02-06T21:52:01.884Z,19.13
2023-02-06T21:54:31.683Z,25.00
2023-02-06T21:56:59.884Z,20.27
2023-02-06T21:59:28.396Z,18.17
2023-02-06T22:01:56.681Z,26.83
2023-02-06T22:04:24.909Z,22.23
2023-02-06T22:06:53.133Z,19.17
2023-02-06T22:09:21.439Z,20.70
2023-02-06T22:11:50.955Z,22.23
2023-02-06T22:14:19.560Z,19.63
2023-02-06T22:16:47.884Z,24.37
2023-02-06T22:19:16.979Z,16.97
2023-02-06T22:21:45.189Z,20.10
2023-02-06T22:24:13.548Z,21.63
2023-02-06T22:26:41.800Z,22.50
2023-02-06T22:29:12.702Z,19.53
2023-02-06T22:31:42.865Z,20.37
2023-02-06T22:34:11.926Z,19.07
2023-02-06T22:36:40.358Z,16.07
2023-02-06T22:39:09.331Z,23.57
2023-02-06T22:41:39.863Z,16.67
2023-02-06T22:44:08.308Z,17.40
2023-02-06T22:46:38.924Z,19.80
2023-02-06T22:49:07.481Z,23.03
2023-02-06T22:51:36.101Z,20.47
2023-02-06T22:54:04.630Z,20.37
2023-02-06T22:56:36.131Z,20.57
2023-02-06T22:59:05.201Z,19.20
2023-02-06T23:01:34.302Z,15.93
2023-02-06T23:14:45.940Z,16.73
2023-02-06T23:17:15.521Z,20.10
2023-02-06T23:19:43.791Z,15.43
2023-02-06T23:22:12.866Z,18.77
2023-02-06T23:24:41.548Z,19.80
2023-02-06T23:27:09.810Z,19.13
2023-02-06T23:29:38.028Z,18.97
2023-02-06T23:32:06.428Z,16.60
2023-02-06T23:34:35.997Z,17.03
2023-02-06T23:37:04.140Z,22.50
2023-02-06T23:39:32.301Z,15.77
2023-02-06T23:42:00.499Z,16.17
2023-02-06T23:44:28.764Z,17.90
2023-02-06T23:46:56.947Z,19.60
2023-02-06T23:49:25.109Z,16.97
2023-02-06T23:51:54.633Z,14.17
2023-02-06T23:54:22.845Z,16.63
2023-02-06T23:56:51.033Z,17.50
2023-02-06T23:59:19.218Z,16.33
